sensor_id;sensor_type;location;lat;lon;timestamp;temperature;humidity
53675;DHT22;39574;50.534;8.500;2023-03-01T00:02:50;2.4;99.9
53675;DHT22;39574;50.534;8.500;2023-03-01T00:07:53;2.4;99.9
53675;DHT22;39574;50.534;8.500;2023-03-01T00:17:08;2.3;99.9
53675;DHT22;39574;50.534;8.500;2023-03-01T00:22:17;2.3;99.9
53675;DHT22;39574;50.534;8.500;2023-03-01T00:27:27;2.2;99.9
53675;DHT22;39574;50.534;8.500;2023-03-01T00:32:30;2.2;99.9
53675;DHT22;39574;50.534;8.500;2023-03-01T00:37:31;2.1;99.9
53675;DHT22;39574;50.534;8.500;2023-03-01T00:42:39;2.1;99.9
53675;DHT22;39574;50.534;8.500;2023-03-01T00:52:20;2.1;99.9
53675;DHT22;39574;50.534;8.500;2023-03-01T00:57:24;2.2;99.9
53675;DHT22;39574;50.534;8.500;2023-03-01T01:02:34;2.2;99.9
53675;DHT22;39574;50.534;8.500;2023-03-01T01:07:38;2.2;99.9
53675;DHT22;39574;50.534;8.500;2023-03-01T01:16:54;2.2;99.9
53675;DHT22;39574;50.534;8.500;2023-03-01T01:22:00;2.1;99.9
53675;DHT22;39574;50.534;8.500;2023-03-01T01:27:12;2.1;99.9
53675;DHT22;39574;50.534;8.500;2023-03-01T01:32:16;2.0;99.9
53675;DHT22;39574;50.534;8.500;2023-03-01T01:37:23;1.8;99.9
53675;DHT22;39574;50.534;8.500;2023-03-01T01:46:53;1.6;99.9
53675;DHT22;39574;50.534;8.500;2023-03-01T01:51:59;1.4;99.9
53675;DHT22;39574;50.534;8.500;2023-03-01T01:57:06;1.3;99.9
53675;DHT22;39574;50.534;8.500;2023-03-01T02:02:19;1.4;99.9
53675;DHT22;39574;50.534;8.500;2023-03-01T02:11:47;1.6;99.9
53675;DHT22;39574;50.534;8.500;2023-03-01T02:16:49;1.8;99.9
53675;DHT22;39574;50.534;8.500;2023-03-01T02:21:58;1.9;99.9
53675;DHT22;39574;50.534;8.500;2023-03-01T02:27:01;2.0;99.9
53675;DHT22;39574;50.534;8.500;2023-03-01T02:32:08;2.0;99.9
53675;DHT22;39574;50.534;8.500;2023-03-01T02:41:50;1.9;99.9
53675;DHT22;39574;50.534;8.500;2023-03-01T02:47:03;1.8;99.9
53675;DHT22;39574;50.534;8.500;2023-03-01T02:52:08;1.6;99.9
53675;DHT22;39574;50.534;8.500;2023-03-01T03:01:33;1.6;99.9
53675;DHT22;39574;50.534;8.500;2023-03-01T03:06:46;1.6;99.9
53675;DHT22;39574;50.534;8.500;2023-03-01T03:11:47;1.6;99.9
53675;DHT22;39574;50.534;8.500;2023-03-01T03:17:02;1.7;99.9
53675;DHT22;39574;50.534;8.500;2023-03-01T03:26:26;1.7;99.9
53675;DHT22;39574;50.534;8.500;2023-03-01T03:31:40;1.5;99.9
53675;DHT22;39574;50.534;8.500;2023-03-01T03:36:52;1.3;99.9
53675;DHT22;39574;50.534;8.500;2023-03-01T03:41:54;1.0;99.9
53675;DHT22;39574;50.534;8.500;2023-03-01T03:51:17;1.0;99.9
53675;DHT22;39574;50.534;8.500;2023-03-01T03:56:18;0.9;99.9
53675;DHT22;39574;50.534;8.500;2023-03-01T04:01:19;0.8;99.9
53675;DHT22;39574;50.534;8.500;2023-03-01T04:06:31;0.7;99.9
53675;DHT22;39574;50.534;8.500;2023-03-01T04:11:40;0.5;99.9
53675;DHT22;39574;50.534;8.500;2023-03-01T04:16:44;0.5;99.9
53675;DHT22;39574;50.534;8.500;2023-03-01T04:25:51;0.5;99.9
53675;DHT22;39574;50.534;8.500;2023-03-01T04:31:08;0.5;99.9
53675;DHT22;39574;50.534;8.500;2023-03-01T04:36:09;0.5;99.9
53675;DHT22;39574;50.534;8.500;2023-03-01T04:41:22;0.4;99.9
53675;DHT22;39574;50.534;8.500;2023-03-01T04:46:33;0.4;99.9
53675;DHT22;39574;50.534;8.500;2023-03-01T04:51:33;0.4;99.9
53675;DHT22;39574;50.534;8.500;2023-03-01T05:00:43;0.5;99.9
53675;DHT22;39574;50.534;8.500;2023-03-01T05:06:08;0.4;99.9
53675;DHT22;39574;50.534;8.500;2023-03-01T05:11:10;0.5;99.9
53675;DHT22;39574;50.534;8.500;2023-03-01T05:16:22;0.4;99.9
53675;DHT22;39574;50.534;8.500;2023-03-01T05:21:25;0.5;99.9
53675;DHT22;39574;50.534;8.500;2023-03-01T05:30:46;0.5;99.9
53675;DHT22;39574;50.534;8.500;2023-03-01T05:36:00;0.5;99.9
53675;DHT22;39574;50.534;8.500;2023-03-01T05:41:14;0.5;99.9
53675;DHT22;39574;50.534;8.500;2023-03-01T05:50:57;0.5;99.9
53675;DHT22;39574;50.534;8.500;2023-03-01T05:56:02;0.5;99.9
53675;DHT22;39574;50.534;8.500;2023-03-01T06:01:10;0.5;99.9
53675;DHT22;39574;50.534;8.500;2023-03-01T06:06:10;0.3;99.9
53675;DHT22;39574;50.534;8.500;2023-03-01T06:15:49;0.3;99.9
53675;DHT22;39574;50.534;8.500;2023-03-01T06:21:03;0.2;99.9
53675;DHT22;39574;50.534;8.500;2023-03-01T06:26:07;0.2;99.9
53675;DHT22;39574;50.534;8.500;2023-03-01T06:40:15;0.3;99.9
53675;DHT22;39574;50.534;8.500;2023-03-01T06:45:29;0.4;99.9
53675;DHT22;39574;50.534;8.500;2023-03-01T06:50:32;0.5;99.9
53675;DHT22;39574;50.534;8.500;2023-03-01T06:55:42;0.5;99.9
53675;DHT22;39574;50.534;8.500;2023-03-01T07:00:54;0.5;99.9
53675;DHT22;39574;50.534;8.500;2023-03-01T07:10:32;0.5;99.9
53675;DHT22;39574;50.534;8.500;2023-03-01T07:15:47;0.5;99.9
53675;DHT22;39574;50.534;8.500;2023-03-01T07:25:28;0.6;99.9
53675;DHT22;39574;50.534;8.500;2023-03-01T07:30:29;0.7;99.9
53675;DHT22;39574;50.534;8.500;2023-03-01T07:35:31;0.8;99.9
53675;DHT22;39574;50.534;8.500;2023-03-01T07:40:45;1.1;99.9
53675;DHT22;39574;50.534;8.500;2023-03-01T07:50:08;1.2;99.9
53675;DHT22;39574;50.534;8.500;2023-03-01T07:55:08;1.3;99.9
53675;DHT22;39574;50.534;8.500;2023-03-01T08:00:18;1.4;99.9
53675;DHT22;39574;50.534;8.500;2023-03-01T08:05:21;1.4;99.9
53675;DHT22;39574;50.534;8.500;2023-03-01T08:10:35;1.4;99.9
53675;DHT22;39574;50.534;8.500;2023-03-01T08:20:38;1.5;99.9
53675;DHT22;39574;50.534;8.500;2023-03-01T08:30:07;1.8;99.9
53675;DHT22;39574;50.534;8.500;2023-03-01T08:35:13;2.0;99.9
53675;DHT22;39574;50.534;8.500;2023-03-01T08:40:27;2.4;99.9
53675;DHT22;39574;50.534;8.500;2023-03-01T08:50:05;2.6;99.9
53675;DHT22;39574;50.534;8.500;2023-03-01T08:55:09;2.8;99.9
53675;DHT22;39574;50.534;8.500;2023-03-01T09:00:18;3.1;99.9
53675;DHT22;39574;50.534;8.500;2023-03-01T09:09:52;3.4;99.9
53675;DHT22;39574;50.534;8.500;2023-03-01T09:14:59;3.6;99.9
53675;DHT22;39574;50.534;8.500;2023-03-01T09:20:13;3.8;99.9
53675;DHT22;39574;50.534;8.500;2023-03-01T09:25:13;4.1;99.9
53675;DHT22;39574;50.534;8.500;2023-03-01T09:34:40;4.4;99.9
53675;DHT22;39574;50.534;8.500;2023-03-01T09:39:51;4.3;99.9
53675;DHT22;39574;50.534;8.500;2023-03-01T09:44:51;4.4;99.9
53675;DHT22;39574;50.534;8.500;2023-03-01T09:49:57;4.8;99.9
53675;DHT22;39574;50.534;8.500;2023-03-01T09:55:07;5.1;99.9
53675;DHT22;39574;50.534;8.500;2023-03-01T10:04:23;5.0;99.9
53675;DHT22;39574;50.534;8.500;2023-03-01T10:09:32;5.2;99.9
53675;DHT22;39574;50.534;8.500;2023-03-01T10:14:36;5.2;99.9
53675;DHT22;39574;50.534;8.500;2023-03-01T10:19:43;5.5;99.9
53675;DHT22;39574;50.534;8.500;2023-03-01T10:24:58;5.9;99.9
53675;DHT22;39574;50.534;8.500;2023-03-01T10:30:05;6.4;99.9
53675;DHT22;39574;50.534;8.500;2023-03-01T10:39:30;6.5;99.9
53675;DHT22;39574;50.534;8.500;2023-03-01T10:44:44;6.8;99.9
53675;DHT22;39574;50.534;8.500;2023-03-01T10:49:51;7.0;99.9
53675;DHT22;39574;50.534;8.500;2023-03-01T10:54:54;7.4;99.9
53675;DHT22;39574;50.534;8.500;2023-03-01T11:04:19;7.3;99.9
53675;DHT22;39574;50.534;8.500;2023-03-01T11:09:30;7.0;99.9
53675;DHT22;39574;50.534;8.500;2023-03-01T11:14:29;7.2;99.9
53675;DHT22;39574;50.534;8.500;2023-03-01T11:19:32;7.1;99.9
53675;DHT22;39574;50.534;8.500;2023-03-01T11:24:45;7.1;99.9
53675;DHT22;39574;50.534;8.500;2023-03-01T11:29:45;7.4;99.9
53675;DHT22;39574;50.534;8.500;2023-03-01T11:34:47;7.8;99.9
53675;DHT22;39574;50.534;8.500;2023-03-01T11:43:54;8.3;99.9
53675;DHT22;39574;50.534;8.500;2023-03-01T11:49:12;8.5;99.9
53675;DHT22;39574;50.534;8.500;2023-03-01T11:54:13;8.2;99.9
53675;DHT22;39574;50.534;8.500;2023-03-01T11:59:23;8.4;99.9
53675;DHT22;39574;50.534;8.500;2023-03-01T12:04:28;8.5;99.9
53675;DHT22;39574;50.534;8.500;2023-03-01T12:09:31;8.5;99.9
53675;DHT22;39574;50.534;8.500;2023-03-01T12:14:39;8.6;99.9
53675;DHT22;39574;50.534;8.500;2023-03-01T12:19:37;8.6;99.9
53675;DHT22;39574;50.534;8.500;2023-03-01T12:29:02;8.7;99.9
53675;DHT22;39574;50.534;8.500;2023-03-01T12:34:12;8.8;99.9
53675;DHT22;39574;50.534;8.500;2023-03-01T12:39:21;9.4;99.1
53675;DHT22;39574;50.534;8.500;2023-03-01T12:44:30;9.6;97.5
53675;DHT22;39574;50.534;8.500;2023-03-01T12:54:13;8.8;96.8
53675;DHT22;39574;50.534;8.500;2023-03-01T12:59:25;9.1;95.4
53675;DHT22;39574;50.534;8.500;2023-03-01T13:08:54;9.7;93.7
53675;DHT22;39574;50.534;8.500;2023-03-01T13:14:04;9.6;93.0
53675;DHT22;39574;50.534;8.500;2023-03-01T13:19:08;9.8;92.1
53675;DHT22;39574;50.534;8.500;2023-03-01T13:24:23;9.8;91.6
53675;DHT22;39574;50.534;8.500;2023-03-01T13:33:59;10.2;89.9
53675;DHT22;39574;50.534;8.500;2023-03-01T13:39:26;10.2;88.1
53675;DHT22;39574;50.534;8.500;2023-03-01T13:44:20;10.0;87.3
53675;DHT22;39574;50.534;8.500;2023-03-01T13:53:40;10.1;86.8
53675;DHT22;39574;50.534;8.500;2023-03-01T13:58:44;10.0;86.2
53675;DHT22;39574;50.534;8.500;2023-03-01T14:03:45;10.3;86.3
53675;DHT22;39574;50.534;8.500;2023-03-01T14:08:51;10.5;85.1
53675;DHT22;39574;50.534;8.500;2023-03-01T14:13:54;10.3;83.6
53675;DHT22;39574;50.534;8.500;2023-03-01T14:18:58;10.2;83.1
53675;DHT22;39574;50.534;8.500;2023-03-01T14:24:05;10.0;82.8
53675;DHT22;39574;50.534;8.500;2023-03-01T14:29:22;10.1;82.1
53675;DHT22;39574;50.534;8.500;2023-03-01T14:38:46;10.4;81.3
53675;DHT22;39574;50.534;8.500;2023-03-01T14:44:01;10.7;81.3
53675;DHT22;39574;50.534;8.500;2023-03-01T14:53:38;10.7;80.4
53675;DHT22;39574;50.534;8.500;2023-03-01T14:58:45;10.8;80.6
53675;DHT22;39574;50.534;8.500;2023-03-01T15:03:48;10.7;79.8
53675;DHT22;39574;50.534;8.500;2023-03-01T15:08:55;10.3;79.1
53675;DHT22;39574;50.534;8.500;2023-03-01T15:14:00;10.2;77.1
53675;DHT22;39574;50.534;8.500;2023-03-01T15:23:26;9.9;73.5
53675;DHT22;39574;50.534;8.500;2023-03-01T15:28:42;9.7;70.7
53675;DHT22;39574;50.534;8.500;2023-03-01T15:33:36;9.6;69.0
53675;DHT22;39574;50.534;8.500;2023-03-01T15:38:51;9.8;67.0
53675;DHT22;39574;50.534;8.500;2023-03-01T15:43:53;10.0;67.5
53675;DHT22;39574;50.534;8.500;2023-03-01T15:48:55;10.4;69.0
53675;DHT22;39574;50.534;8.500;2023-03-01T15:58:13;10.7;70.0
53675;DHT22;39574;50.534;8.500;2023-03-01T16:03:32;10.9;70.2
53675;DHT22;39574;50.534;8.500;2023-03-01T16:08:46;10.9;68.8
53675;DHT22;39574;50.534;8.500;2023-03-01T16:13:50;10.9;67.6
53675;DHT22;39574;50.534;8.500;2023-03-01T16:23:12;11.2;64.8
53675;DHT22;39574;50.534;8.500;2023-03-01T16:28:14;11.5;62.3
53675;DHT22;39574;50.534;8.500;2023-03-01T16:33:27;10.8;61.7
53675;DHT22;39574;50.534;8.500;2023-03-01T16:38:39;10.6;62.1
53675;DHT22;39574;50.534;8.500;2023-03-01T16:43:40;9.9;62.8
53675;DHT22;39574;50.534;8.500;2023-03-01T16:52:49;9.1;64.8
53675;DHT22;39574;50.534;8.500;2023-03-01T16:58:08;8.1;68.3
53675;DHT22;39574;50.534;8.500;2023-03-01T17:03:18;7.3;71.5
53675;DHT22;39574;50.534;8.500;2023-03-01T17:08:24;6.7;74.3
53675;DHT22;39574;50.534;8.500;2023-03-01T17:13:34;6.3;76.2
53675;DHT22;39574;50.534;8.500;2023-03-01T17:22:53;6.2;77.6
53675;DHT22;39574;50.534;8.500;2023-03-01T17:28:00;6.1;79.0
53675;DHT22;39574;50.534;8.500;2023-03-01T17:33:16;6.0;79.7
53675;DHT22;39574;50.534;8.500;2023-03-01T17:38:15;5.8;80.2
53675;DHT22;39574;50.534;8.500;2023-03-01T17:43:27;5.7;81.1
53675;DHT22;39574;50.534;8.500;2023-03-01T17:48:29;5.6;82.4
53675;DHT22;39574;50.534;8.500;2023-03-01T17:57:52;5.6;83.2
53675;DHT22;39574;50.534;8.500;2023-03-01T18:03:04;5.4;84.2
53675;DHT22;39574;50.534;8.500;2023-03-01T18:08:05;5.3;85.6
53675;DHT22;39574;50.534;8.500;2023-03-01T18:13:20;5.2;86.9
53675;DHT22;39574;50.534;8.500;2023-03-01T18:23:01;5.0;88.7
53675;DHT22;39574;50.534;8.500;2023-03-01T18:28:14;4.9;90.2
53675;DHT22;39574;50.534;8.500;2023-03-01T18:37:44;4.9;91.6
53675;DHT22;39574;50.534;8.500;2023-03-01T18:42:56;4.8;93.1
53675;DHT22;39574;50.534;8.500;2023-03-01T18:47:59;4.7;94.2
53675;DHT22;39574;50.534;8.500;2023-03-01T18:53:08;4.6;95.3
53675;DHT22;39574;50.534;8.500;2023-03-01T19:02:19;4.5;96.5
53675;DHT22;39574;50.534;8.500;2023-03-01T19:07:36;4.4;98.1
53675;DHT22;39574;50.534;8.500;2023-03-01T19:12:47;4.4;99.2
53675;DHT22;39574;50.534;8.500;2023-03-01T19:23:06;4.4;99.7
53675;DHT22;39574;50.534;8.500;2023-03-01T19:32:20;4.3;99.9
53675;DHT22;39574;50.534;8.500;2023-03-01T19:37:32;4.2;99.9
53675;DHT22;39574;50.534;8.500;2023-03-01T19:43:04;4.1;99.9
53675;DHT22;39574;50.534;8.500;2023-03-01T19:52:36;4.0;99.9
53675;DHT22;39574;50.534;8.500;2023-03-01T19:57:50;4.0;99.9
53675;DHT22;39574;50.534;8.500;2023-03-01T20:02:54;4.0;99.9
53675;DHT22;39574;50.534;8.500;2023-03-01T20:12:04;4.0;99.9
53675;DHT22;39574;50.534;8.500;2023-03-01T20:17:16;3.9;99.9
53675;DHT22;39574;50.534;8.500;2023-03-01T20:22:17;3.9;99.9
53675;DHT22;39574;50.534;8.500;2023-03-01T20:27:29;3.8;99.9
53675;DHT22;39574;50.534;8.500;2023-03-01T20:32:31;3.8;99.9
53675;DHT22;39574;50.534;8.500;2023-03-01T20:37:40;3.8;99.9
53675;DHT22;39574;50.534;8.500;2023-03-01T21:02:11;3.5;99.9
53675;DHT22;39574;50.534;8.500;2023-03-01T21:07:17;3.6;99.9
53675;DHT22;39574;50.534;8.500;2023-03-01T21:12:19;3.6;99.9
53675;DHT22;39574;50.534;8.500;2023-03-01T21:17:31;3.6;99.9
53675;DHT22;39574;50.534;8.500;2023-03-01T21:27:34;3.4;99.9
53675;DHT22;39574;50.534;8.500;2023-03-01T21:36:57;3.3;99.9
53675;DHT22;39574;50.534;8.500;2023-03-01T21:41:57;3.3;99.9
53675;DHT22;39574;50.534;8.500;2023-03-01T21:47:12;3.2;99.9
53675;DHT22;39574;50.534;8.500;2023-03-01T21:52:23;3.2;99.9
53675;DHT22;39574;50.534;8.500;2023-03-01T22:01:50;3.1;99.9
53675;DHT22;39574;50.534;8.500;2023-03-01T22:07:01;3.1;99.9
53675;DHT22;39574;50.534;8.500;2023-03-01T22:12:03;3.0;99.9
53675;DHT22;39574;50.534;8.500;2023-03-01T22:17:16;3.0;99.9
53675;DHT22;39574;50.534;8.500;2023-03-01T22:22:17;3.2;99.9
53675;DHT22;39574;50.534;8.500;2023-03-01T22:31:54;3.1;99.9
53675;DHT22;39574;50.534;8.500;2023-03-01T22:37:08;3.1;99.9
53675;DHT22;39574;50.534;8.500;2023-03-01T22:46:50;3.1;99.9
53675;DHT22;39574;50.534;8.500;2023-03-01T22:51:50;3.2;99.9
53675;DHT22;39574;50.534;8.500;2023-03-01T22:56:54;3.3;99.9
53675;DHT22;39574;50.534;8.500;2023-03-01T23:02:02;3.4;99.9
53675;DHT22;39574;50.534;8.500;2023-03-01T23:07:03;3.4;99.9
53675;DHT22;39574;50.534;8.500;2023-03-01T23:16:32;3.4;99.9
53675;DHT22;39574;50.534;8.500;2023-03-01T23:21:44;3.5;99.9
53675;DHT22;39574;50.534;8.500;2023-03-01T23:26:44;3.4;99.9
53675;DHT22;39574;50.534;8.500;2023-03-01T23:31:56;3.3;99.9
53675;DHT22;39574;50.534;8.500;2023-03-01T23:41:25;3.2;99.9
53675;DHT22;39574;50.534;8.500;2023-03-01T23:46:34;3.1;99.9
53675;DHT22;39574;50.534;8.500;2023-03-01T23:51:38;2.9;99.9
53675;DHT22;39574;50.534;8.500;2023-03-01T23:56:38;2.7;99.9
